sensor_id;sensor_type;location;lat;lon;timestamp;P1;durP1;ratioP1;P2;durP2;ratioP2
8230;SDS011;4156;50.908;6.974;2023-09-08T00:01:28;3.83;;;3.20;;
8230;SDS011;4156;50.908;6.974;2023-09-08T00:03:53;3.83;;;3.30;;
8230;SDS011;4156;50.908;6.974;2023-09-08T00:06:19;5.00;;;3.43;;
8230;SDS011;4156;50.908;6.974;2023-09-08T00:08:44;4.17;;;3.53;;
8230;SDS011;4156;50.908;6.974;2023-09-08T00:11:10;4.33;;;3.30;;
8230;SDS011;4156;50.908;6.974;2023-09-08T00:13:35;3.77;;;3.10;;
8230;SDS011;4156;50.908;6.974;2023-09-08T00:16:01;3.63;;;3.23;;
8230;SDS011;4156;50.908;6.974;2023-09-08T00:18:27;4.33;;;3.07;;
8230;SDS011;4156;50.908;6.974;2023-09-08T00:20:52;5.27;;;3.40;;
8230;SDS011;4156;50.908;6.974;2023-09-08T00:23:18;4.07;;;3.30;;
8230;SDS011;4156;50.908;6.974;2023-09-08T00:25:43;4.80;;;3.30;;
8230;SDS011;4156;50.908;6.974;2023-09-08T00:28:09;4.47;;;3.67;;
8230;SDS011;4156;50.908;6.974;2023-09-08T00:30:34;4.63;;;3.70;;
8230;SDS011;4156;50.908;6.974;2023-09-08T00:33:00;4.73;;;3.77;;
8230;SDS011;4156;50.908;6.974;2023-09-08T00:35:25;7.90;;;3.60;;
8230;SDS011;4156;50.908;6.974;2023-09-08T00:37:51;4.67;;;3.27;;
8230;SDS011;4156;50.908;6.974;2023-09-08T00:40:17;4.83;;;3.70;;
8230;SDS011;4156;50.908;6.974;2023-09-08T00:42:42;4.67;;;3.47;;
8230;SDS011;4156;50.908;6.974;2023-09-08T00:45:08;4.80;;;3.80;;
8230;SDS011;4156;50.908;6.974;2023-09-08T00:47:34;4.40;;;4.00;;
8230;SDS011;4156;50.908;6.974;2023-09-08T00:50:01;4.03;;;3.60;;
8230;SDS011;4156;50.908;6.974;2023-09-08T00:52:30;4.80;;;3.70;;
8230;SDS011;4156;50.908;6.974;2023-09-08T00:54:57;3.97;;;3.50;;
8230;SDS011;4156;50.908;6.974;2023-09-08T00:57:24;5.43;;;3.90;;
8230;SDS011;4156;50.908;6.974;2023-09-08T00:59:49;4.47;;;3.80;;
8230;SDS011;4156;50.908;6.974;2023-09-08T01:02:15;4.10;;;3.60;;
8230;SDS011;4156;50.908;6.974;2023-09-08T01:04:41;4.47;;;3.97;;
8230;SDS011;4156;50.908;6.974;2023-09-08T01:07:07;5.93;;;3.77;;
8230;SDS011;4156;50.908;6.974;2023-09-08T01:09:33;4.50;;;3.70;;
8230;SDS011;4156;50.908;6.974;2023-09-08T01:12:02;5.03;;;4.07;;
8230;SDS011;4156;50.908;6.974;2023-09-08T01:14:30;4.90;;;3.87;;
8230;SDS011;4156;50.908;6.974;2023-09-08T01:16:56;5.87;;;3.57;;
8230;SDS011;4156;50.908;6.974;2023-09-08T01:19:21;4.00;;;3.60;;
8230;SDS011;4156;50.908;6.974;2023-09-08T01:27:39;5.57;;;4.03;;
8230;SDS011;4156;50.908;6.974;2023-09-08T01:30:10;5.67;;;4.03;;
8230;SDS011;4156;50.908;6.974;2023-09-08T01:32:37;4.20;;;3.80;;
8230;SDS011;4156;50.908;6.974;2023-09-08T01:35:05;3.87;;;3.50;;
8230;SDS011;4156;50.908;6.974;2023-09-08T01:37:31;4.20;;;3.80;;
8230;SDS011;4156;50.908;6.974;2023-09-08T01:39:57;4.73;;;3.63;;
8230;SDS011;4156;50.908;6.974;2023-09-08T01:42:22;4.70;;;3.77;;
8230;SDS011;4156;50.908;6.974;2023-09-08T01:44:48;6.37;;;4.00;;
8230;SDS011;4156;50.908;6.974;2023-09-08T01:47:13;5.00;;;3.90;;
8230;SDS011;4156;50.908;6.974;2023-09-08T01:49:39;4.70;;;3.90;;
8230;SDS011;4156;50.908;6.974;2023-09-08T01:52:04;5.83;;;3.97;;
8230;SDS011;4156;50.908;6.974;2023-09-08T01:54:30;5.40;;;4.13;;
8230;SDS011;4156;50.908;6.974;2023-09-08T01:56:55;4.90;;;3.73;;
8230;SDS011;4156;50.908;6.974;2023-09-08T01:59:21;6.37;;;3.97;;
8230;SDS011;4156;50.908;6.974;2023-09-08T02:01:46;8.20;;;3.97;;
8230;SDS011;4156;50.908;6.974;2023-09-08T02:04:12;4.73;;;3.83;;
8230;SDS011;4156;50.908;6.974;2023-09-08T02:06:38;8.03;;;3.70;;
8230;SDS011;4156;50.908;6.974;2023-09-08T02:09:03;4.67;;;3.93;;
8230;SDS011;4156;50.908;6.974;2023-09-08T02:11:29;4.03;;;3.63;;
8230;SDS011;4156;50.908;6.974;2023-09-08T02:13:54;4.00;;;3.57;;
8230;SDS011;4156;50.908;6.974;2023-09-08T02:16:20;4.17;;;3.67;;
8230;SDS011;4156;50.908;6.974;2023-09-08T02:18:45;7.43;;;3.97;;
8230;SDS011;4156;50.908;6.974;2023-09-08T02:21:11;5.27;;;3.80;;
8230;SDS011;4156;50.908;6.974;2023-09-08T02:23:37;5.97;;;3.70;;
8230;SDS011;4156;50.908;6.974;2023-09-08T02:26:03;5.23;;;3.70;;
8230;SDS011;4156;50.908;6.974;2023-09-08T02:28:28;4.90;;;3.33;;
8230;SDS011;4156;50.908;6.974;2023-09-08T02:30:54;4.03;;;3.40;;
8230;SDS011;4156;50.908;6.974;2023-09-08T02:33:20;6.57;;;3.90;;
8230;SDS011;4156;50.908;6.974;2023-09-08T02:35:45;5.23;;;3.73;;
8230;SDS011;4156;50.908;6.974;2023-09-08T02:38:11;4.27;;;3.03;;
8230;SDS011;4156;50.908;6.974;2023-09-08T02:40:36;4.93;;;3.67;;
8230;SDS011;4156;50.908;6.974;2023-09-08T02:43:02;4.23;;;3.57;;
8230;SDS011;4156;50.908;6.974;2023-09-08T02:45:28;4.00;;;3.13;;
8230;SDS011;4156;50.908;6.974;2023-09-08T02:47:54;4.33;;;3.33;;
8230;SDS011;4156;50.908;6.974;2023-09-08T02:50:20;4.43;;;3.53;;
8230;SDS011;4156;50.908;6.974;2023-09-08T02:52:46;4.00;;;3.60;;
8230;SDS011;4156;50.908;6.974;2023-09-08T02:55:12;4.40;;;3.90;;
8230;SDS011;4156;50.908;6.974;2023-09-08T02:57:38;4.37;;;3.30;;
8230;SDS011;4156;50.908;6.974;2023-09-08T03:00:04;6.40;;;3.83;;
8230;SDS011;4156;50.908;6.974;2023-09-08T03:02:31;4.40;;;3.20;;
8230;SDS011;4156;50.908;6.974;2023-09-08T03:04:57;7.40;;;3.77;;
8230;SDS011;4156;50.908;6.974;2023-09-08T03:07:22;5.50;;;3.80;;
8230;SDS011;4156;50.908;6.974;2023-09-08T03:09:48;4.10;;;3.70;;
8230;SDS011;4156;50.908;6.974;2023-09-08T03:12:14;3.83;;;3.23;;
8230;SDS011;4156;50.908;6.974;2023-09-08T03:14:39;4.20;;;3.70;;
8230;SDS011;4156;50.908;6.974;2023-09-08T03:17:05;4.83;;;3.73;;
8230;SDS011;4156;50.908;6.974;2023-09-08T03:19:30;4.77;;;3.87;;
8230;SDS011;4156;50.908;6.974;2023-09-08T03:21:57;4.97;;;3.97;;
8230;SDS011;4156;50.908;6.974;2023-09-08T03:24:22;5.73;;;3.37;;
8230;SDS011;4156;50.908;6.974;2023-09-08T03:26:48;5.13;;;3.40;;
8230;SDS011;4156;50.908;6.974;2023-09-08T03:29:14;3.70;;;3.17;;
8230;SDS011;4156;50.908;6.974;2023-09-08T03:31:39;4.83;;;3.70;;
8230;SDS011;4156;50.908;6.974;2023-09-08T03:34:05;3.83;;;3.40;;
8230;SDS011;4156;50.908;6.974;2023-09-08T03:36:31;4.00;;;3.30;;
8230;SDS011;4156;50.908;6.974;2023-09-08T03:39:00;4.37;;;3.43;;
8230;SDS011;4156;50.908;6.974;2023-09-08T03:41:26;4.43;;;3.60;;
8230;SDS011;4156;50.908;6.974;2023-09-08T03:43:52;4.10;;;3.50;;
8230;SDS011;4156;50.908;6.974;2023-09-08T03:46:17;5.20;;;3.57;;
8230;SDS011;4156;50.908;6.974;2023-09-08T03:48:43;6.60;;;3.70;;
8230;SDS011;4156;50.908;6.974;2023-09-08T03:51:08;4.93;;;3.07;;
8230;SDS011;4156;50.908;6.974;2023-09-08T03:53:34;6.00;;;3.67;;
8230;SDS011;4156;50.908;6.974;2023-09-08T03:56:00;5.23;;;3.43;;
8230;SDS011;4156;50.908;6.974;2023-09-08T03:58:25;4.70;;;3.53;;
8230;SDS011;4156;50.908;6.974;2023-09-08T04:00:51;3.90;;;3.40;;
8230;SDS011;4156;50.908;6.974;2023-09-08T04:03:16;5.43;;;3.37;;
8230;SDS011;4156;50.908;6.974;2023-09-08T04:05:42;4.83;;;3.33;;
8230;SDS011;4156;50.908;6.974;2023-09-08T04:08:07;5.40;;;3.30;;
8230;SDS011;4156;50.908;6.974;2023-09-08T04:10:33;4.40;;;3.47;;
8230;SDS011;4156;50.908;6.974;2023-09-08T04:12:58;7.13;;;3.93;;
8230;SDS011;4156;50.908;6.974;2023-09-08T04:15:24;5.23;;;3.47;;
8230;SDS011;4156;50.908;6.974;2023-09-08T04:17:49;5.67;;;3.90;;
8230;SDS011;4156;50.908;6.974;2023-09-08T04:20:15;4.60;;;3.60;;
8230;SDS011;4156;50.908;6.974;2023-09-08T04:22:40;5.13;;;3.70;;
8230;SDS011;4156;50.908;6.974;2023-09-08T04:25:06;4.47;;;3.70;;
8230;SDS011;4156;50.908;6.974;2023-09-08T04:27:32;4.53;;;3.90;;
8230;SDS011;4156;50.908;6.974;2023-09-08T04:29:58;4.23;;;3.60;;
8230;SDS011;4156;50.908;6.974;2023-09-08T04:32:24;4.87;;;3.57;;
8230;SDS011;4156;50.908;6.974;2023-09-08T04:34:50;5.30;;;3.60;;
8230;SDS011;4156;50.908;6.974;2023-09-08T04:37:15;5.00;;;3.53;;
8230;SDS011;4156;50.908;6.974;2023-09-08T04:39:41;5.73;;;3.50;;
8230;SDS011;4156;50.908;6.974;2023-09-08T04:42:07;3.47;;;3.10;;
8230;SDS011;4156;50.908;6.974;2023-09-08T04:44:33;4.53;;;3.50;;
8230;SDS011;4156;50.908;6.974;2023-09-08T04:46:58;6.67;;;3.97;;
8230;SDS011;4156;50.908;6.974;2023-09-08T04:49:24;4.73;;;3.53;;
8230;SDS011;4156;50.908;6.974;2023-09-08T04:51:49;4.20;;;3.70;;
8230;SDS011;4156;50.908;6.974;2023-09-08T04:54:15;7.33;;;4.03;;
8230;SDS011;4156;50.908;6.974;2023-09-08T04:56:41;5.33;;;3.83;;
8230;SDS011;4156;50.908;6.974;2023-09-08T04:59:06;4.93;;;3.83;;
8230;SDS011;4156;50.908;6.974;2023-09-08T05:01:32;5.00;;;3.60;;
8230;SDS011;4156;50.908;6.974;2023-09-08T05:04:00;7.43;;;4.20;;
8230;SDS011;4156;50.908;6.974;2023-09-08T05:06:26;5.60;;;3.73;;
8230;SDS011;4156;50.908;6.974;2023-09-08T05:08:52;5.53;;;3.70;;
8230;SDS011;4156;50.908;6.974;2023-09-08T05:11:17;4.60;;;3.47;;
8230;SDS011;4156;50.908;6.974;2023-09-08T05:13:44;5.67;;;3.97;;
8230;SDS011;4156;50.908;6.974;2023-09-08T05:16:09;4.57;;;3.50;;
8230;SDS011;4156;50.908;6.974;2023-09-08T05:18:38;7.37;;;3.97;;
8230;SDS011;4156;50.908;6.974;2023-09-08T05:21:04;8.13;;;3.90;;
8230;SDS011;4156;50.908;6.974;2023-09-08T05:23:30;5.57;;;4.00;;
8230;SDS011;4156;50.908;6.974;2023-09-08T05:25:55;4.67;;;3.43;;
8230;SDS011;4156;50.908;6.974;2023-09-08T05:28:21;4.27;;;3.60;;
8230;SDS011;4156;50.908;6.974;2023-09-08T05:30:46;4.87;;;3.80;;
8230;SDS011;4156;50.908;6.974;2023-09-08T05:33:12;7.80;;;3.77;;
8230;SDS011;4156;50.908;6.974;2023-09-08T05:35:37;5.13;;;3.70;;
8230;SDS011;4156;50.908;6.974;2023-09-08T05:38:03;7.37;;;3.80;;
8230;SDS011;4156;50.908;6.974;2023-09-08T05:40:30;9.23;;;3.80;;
8230;SDS011;4156;50.908;6.974;2023-09-08T05:42:55;7.90;;;3.97;;
8230;SDS011;4156;50.908;6.974;2023-09-08T05:45:21;7.77;;;3.50;;
8230;SDS011;4156;50.908;6.974;2023-09-08T05:47:47;6.00;;;3.70;;
8230;SDS011;4156;50.908;6.974;2023-09-08T05:50:14;5.00;;;3.80;;
8230;SDS011;4156;50.908;6.974;2023-09-08T05:52:39;4.43;;;3.30;;
8230;SDS011;4156;50.908;6.974;2023-09-08T05:55:05;5.70;;;3.87;;
8230;SDS011;4156;50.908;6.974;2023-09-08T05:57:31;9.73;;;3.87;;
8230;SDS011;4156;50.908;6.974;2023-09-08T05:59:57;4.80;;;3.70;;
8230;SDS011;4156;50.908;6.974;2023-09-08T06:02:22;4.33;;;3.73;;
8230;SDS011;4156;50.908;6.974;2023-09-08T06:04:48;5.83;;;3.80;;
8230;SDS011;4156;50.908;6.974;2023-09-08T06:07:13;5.57;;;3.93;;
8230;SDS011;4156;50.908;6.974;2023-09-08T06:09:39;6.43;;;3.50;;
8230;SDS011;4156;50.908;6.974;2023-09-08T06:12:04;7.70;;;3.80;;
8230;SDS011;4156;50.908;6.974;2023-09-08T06:14:30;5.03;;;3.30;;
8230;SDS011;4156;50.908;6.974;2023-09-08T06:16:56;9.30;;;3.37;;
8230;SDS011;4156;50.908;6.974;2023-09-08T06:19:21;5.47;;;3.40;;
8230;SDS011;4156;50.908;6.974;2023-09-08T06:21:47;9.17;;;4.10;;
8230;SDS011;4156;50.908;6.974;2023-09-08T06:24:12;6.93;;;3.53;;
8230;SDS011;4156;50.908;6.974;2023-09-08T06:26:38;6.03;;;3.73;;
8230;SDS011;4156;50.908;6.974;2023-09-08T06:29:03;4.43;;;3.47;;
8230;SDS011;4156;50.908;6.974;2023-09-08T06:31:29;4.53;;;3.23;;
8230;SDS011;4156;50.908;6.974;2023-09-08T06:33:54;5.67;;;3.93;;
8230;SDS011;4156;50.908;6.974;2023-09-08T06:36:20;5.83;;;3.80;;
8230;SDS011;4156;50.908;6.974;2023-09-08T06:38:45;5.30;;;3.80;;
8230;SDS011;4156;50.908;6.974;2023-09-08T06:41:11;4.47;;;3.53;;
8230;SDS011;4156;50.908;6.974;2023-09-08T06:43:37;4.53;;;3.50;;
8230;SDS011;4156;50.908;6.974;2023-09-08T06:46:03;6.07;;;3.80;;
8230;SDS011;4156;50.908;6.974;2023-09-08T06:48:29;5.63;;;3.90;;
8230;SDS011;4156;50.908;6.974;2023-09-08T06:50:55;5.33;;;3.30;;
8230;SDS011;4156;50.908;6.974;2023-09-08T06:53:21;4.83;;;3.43;;
8230;SDS011;4156;50.908;6.974;2023-09-08T06:55:47;8.13;;;3.60;;
8230;SDS011;4156;50.908;6.974;2023-09-08T06:58:13;5.00;;;3.78;;
8230;SDS011;4156;50.908;6.974;2023-09-08T07:00:40;4.53;;;3.50;;
8230;SDS011;4156;50.908;6.974;2023-09-08T07:03:06;5.33;;;3.40;;
8230;SDS011;4156;50.908;6.974;2023-09-08T07:05:33;4.37;;;3.13;;
8230;SDS011;4156;50.908;6.974;2023-09-08T07:08:03;4.10;;;3.10;;
8230;SDS011;4156;50.908;6.974;2023-09-08T07:10:31;5.10;;;3.80;;
8230;SDS011;4156;50.908;6.974;2023-09-08T07:12:56;8.13;;;4.20;;
8230;SDS011;4156;50.908;6.974;2023-09-08T07:15:22;4.57;;;3.30;;
8230;SDS011;4156;50.908;6.974;2023-09-08T07:17:47;5.23;;;3.47;;
8230;SDS011;4156;50.908;6.974;2023-09-08T07:20:13;4.23;;;3.27;;
8230;SDS011;4156;50.908;6.974;2023-09-08T07:22:38;7.57;;;3.33;;
8230;SDS011;4156;50.908;6.974;2023-09-08T07:25:04;3.95;;;3.45;;
8230;SDS011;4156;50.908;6.974;2023-09-08T07:27:30;6.97;;;3.33;;
8230;SDS011;4156;50.908;6.974;2023-09-08T07:29:56;4.20;;;3.10;;
8230;SDS011;4156;50.908;6.974;2023-09-08T07:32:21;4.50;;;3.20;;
8230;SDS011;4156;50.908;6.974;2023-09-08T07:34:48;5.37;;;3.27;;
8230;SDS011;4156;50.908;6.974;2023-09-08T07:37:19;3.67;;;3.07;;
8230;SDS011;4156;50.908;6.974;2023-09-08T07:39:48;3.93;;;2.90;;
8230;SDS011;4156;50.908;6.974;2023-09-08T07:42:14;6.77;;;3.63;;
8230;SDS011;4156;50.908;6.974;2023-09-08T07:44:40;3.53;;;3.07;;
8230;SDS011;4156;50.908;6.974;2023-09-08T07:47:06;4.13;;;3.20;;
8230;SDS011;4156;50.908;6.974;2023-09-08T07:49:33;3.40;;;2.90;;
8230;SDS011;4156;50.908;6.974;2023-09-08T07:51:59;5.80;;;3.67;;
8230;SDS011;4156;50.908;6.974;2023-09-08T07:54:25;4.27;;;3.43;;
8230;SDS011;4156;50.908;6.974;2023-09-08T07:56:50;7.53;;;2.70;;
8230;SDS011;4156;50.908;6.974;2023-09-08T07:59:16;5.07;;;3.30;;
8230;SDS011;4156;50.908;6.974;2023-09-08T08:01:41;3.37;;;2.90;;
8230;SDS011;4156;50.908;6.974;2023-09-08T08:04:07;5.87;;;3.63;;
8230;SDS011;4156;50.908;6.974;2023-09-08T08:06:33;5.63;;;3.00;;
8230;SDS011;4156;50.908;6.974;2023-09-08T08:08:58;5.73;;;3.40;;
8230;SDS011;4156;50.908;6.974;2023-09-08T08:11:24;4.23;;;3.10;;
8230;SDS011;4156;50.908;6.974;2023-09-08T08:13:50;4.30;;;3.07;;
8230;SDS011;4156;50.908;6.974;2023-09-08T08:16:16;4.63;;;3.27;;
8230;SDS011;4156;50.908;6.974;2023-09-08T08:18:41;3.93;;;3.07;;
8230;SDS011;4156;50.908;6.974;2023-09-08T08:21:07;3.77;;;2.97;;
8230;SDS011;4156;50.908;6.974;2023-09-08T08:23:33;4.00;;;3.27;;
8230;SDS011;4156;50.908;6.974;2023-09-08T08:25:59;5.27;;;3.33;;
8230;SDS011;4156;50.908;6.974;2023-09-08T08:28:25;3.93;;;2.97;;
8230;SDS011;4156;50.908;6.974;2023-09-08T08:30:51;4.43;;;3.10;;
8230;SDS011;4156;50.908;6.974;2023-09-08T08:33:17;4.40;;;3.47;;
8230;SDS011;4156;50.908;6.974;2023-09-08T08:35:49;3.93;;;3.00;;
8230;SDS011;4156;50.908;6.974;2023-09-08T08:38:15;4.63;;;3.10;;
8230;SDS011;4156;50.908;6.974;2023-09-08T08:40:41;5.30;;;3.37;;
8230;SDS011;4156;50.908;6.974;2023-09-08T08:43:07;4.43;;;2.90;;
8230;SDS011;4156;50.908;6.974;2023-09-08T08:45:32;4.77;;;2.90;;
8230;SDS011;4156;50.908;6.974;2023-09-08T08:48:00;3.97;;;3.03;;
8230;SDS011;4156;50.908;6.974;2023-09-08T08:50:27;3.47;;;3.00;;
8230;SDS011;4156;50.908;6.974;2023-09-08T08:52:54;3.33;;;3.00;;
8230;SDS011;4156;50.908;6.974;2023-09-08T08:55:20;3.83;;;2.90;;
8230;SDS011;4156;50.908;6.974;2023-09-08T08:57:46;3.77;;;2.90;;
8230;SDS011;4156;50.908;6.974;2023-09-08T09:00:13;5.63;;;3.30;;
8230;SDS011;4156;50.908;6.974;2023-09-08T09:02:40;3.97;;;3.17;;
8230;SDS011;4156;50.908;6.974;2023-09-08T09:05:13;6.47;;;3.40;;
8230;SDS011;4156;50.908;6.974;2023-09-08T09:07:40;4.80;;;3.50;;
8230;SDS011;4156;50.908;6.974;2023-09-08T09:10:07;4.07;;;2.70;;
8230;SDS011;4156;50.908;6.974;2023-09-08T09:12:33;5.10;;;3.40;;
8230;SDS011;4156;50.908;6.974;2023-09-08T09:15:02;3.27;;;2.87;;
8230;SDS011;4156;50.908;6.974;2023-09-08T09:17:29;7.03;;;3.03;;
8230;SDS011;4156;50.908;6.974;2023-09-08T09:22:40;3.90;;;2.97;;
8230;SDS011;4156;50.908;6.974;2023-09-08T09:25:06;5.53;;;3.17;;
8230;SDS011;4156;50.908;6.974;2023-09-08T09:27:32;4.87;;;3.10;;
8230;SDS011;4156;50.908;6.974;2023-09-08T09:30:02;4.03;;;3.13;;
8230;SDS011;4156;50.908;6.974;2023-09-08T09:32:28;4.17;;;3.63;;
8230;SDS011;4156;50.908;6.974;2023-09-08T09:34:56;4.60;;;2.88;;
8230;SDS011;4156;50.908;6.974;2023-09-08T09:37:23;4.03;;;3.33;;
8230;SDS011;4156;50.908;6.974;2023-09-08T09:39:52;4.03;;;3.00;;
8230;SDS011;4156;50.908;6.974;2023-09-08T09:42:18;5.70;;;3.63;;
8230;SDS011;4156;50.908;6.974;2023-09-08T09:44:48;5.07;;;3.53;;
8230;SDS011;4156;50.908;6.974;2023-09-08T09:47:16;5.47;;;3.63;;
8230;SDS011;4156;50.908;6.974;2023-09-08T09:49:45;4.67;;;3.10;;
8230;SDS011;4156;50.908;6.974;2023-09-08T09:52:12;5.03;;;3.60;;
8230;SDS011;4156;50.908;6.974;2023-09-08T09:54:42;3.77;;;3.33;;
8230;SDS011;4156;50.908;6.974;2023-09-08T09:57:09;4.83;;;2.97;;
8230;SDS011;4156;50.908;6.974;2023-09-08T09:59:37;5.17;;;3.20;;
8230;SDS011;4156;50.908;6.974;2023-09-08T10:02:05;4.47;;;3.43;;
8230;SDS011;4156;50.908;6.974;2023-09-08T10:04:36;6.10;;;3.20;;
8230;SDS011;4156;50.908;6.974;2023-09-08T10:07:04;4.25;;;3.33;;
8230;SDS011;4156;50.908;6.974;2023-09-08T10:09:29;4.47;;;3.10;;
8230;SDS011;4156;50.908;6.974;2023-09-08T10:11:55;3.80;;;3.20;;
8230;SDS011;4156;50.908;6.974;2023-09-08T10:14:27;4.88;;;3.53;;
8230;SDS011;4156;50.908;6.974;2023-09-08T10:16:55;5.10;;;3.40;;
8230;SDS011;4156;50.908;6.974;2023-09-08T10:19:24;3.73;;;3.13;;
8230;SDS011;4156;50.908;6.974;2023-09-08T10:21:50;3.67;;;3.10;;
8230;SDS011;4156;50.908;6.974;2023-09-08T10:24:24;5.07;;;3.27;;
8230;SDS011;4156;50.908;6.974;2023-09-08T10:27:04;3.47;;;3.13;;
8230;SDS011;4156;50.908;6.974;2023-09-08T10:29:36;3.83;;;3.30;;
8230;SDS011;4156;50.908;6.974;2023-09-08T10:32:02;5.55;;;3.72;;
8230;SDS011;4156;50.908;6.974;2023-09-08T10:34:29;5.03;;;3.00;;
8230;SDS011;4156;50.908;6.974;2023-09-08T10:36:56;4.70;;;2.95;;
8230;SDS011;4156;50.908;6.974;2023-09-08T10:47:18;7.53;;;3.22;;
8230;SDS011;4156;50.908;6.974;2023-09-08T10:50:04;5.70;;;3.45;;
8230;SDS011;4156;50.908;6.974;2023-09-08T10:52:30;3.40;;;3.10;;
8230;SDS011;4156;50.908;6.974;2023-09-08T10:54:58;3.78;;;2.90;;
8230;SDS011;4156;50.908;6.974;2023-09-08T10:57:24;3.88;;;3.03;;
8230;SDS011;4156;50.908;6.974;2023-09-08T10:59:54;5.53;;;3.33;;
8230;SDS011;4156;50.908;6.974;2023-09-08T11:05:13;3.97;;;2.97;;
8230;SDS011;4156;50.908;6.974;2023-09-08T11:07:41;5.35;;;3.65;;
8230;SDS011;4156;50.908;6.974;2023-09-08T11:10:08;5.60;;;3.42;;
8230;SDS011;4156;50.908;6.974;2023-09-08T11:12:35;4.97;;;3.42;;
8230;SDS011;4156;50.908;6.974;2023-09-08T11:15:04;3.67;;;3.22;;
8230;SDS011;4156;50.908;6.974;2023-09-08T11:17:33;4.90;;;3.20;;
8230;SDS011;4156;50.908;6.974;2023-09-08T11:20:00;3.65;;;3.20;;
8230;SDS011;4156;50.908;6.974;2023-09-08T11:22:33;4.40;;;3.20;;
8230;SDS011;4156;50.908;6.974;2023-09-08T11:25:00;3.65;;;2.83;;
8230;SDS011;4156;50.908;6.974;2023-09-08T11:27:29;4.78;;;3.47;;
8230;SDS011;4156;50.908;6.974;2023-09-08T11:29:55;5.65;;;3.30;;
8230;SDS011;4156;50.908;6.974;2023-09-08T11:32:22;3.83;;;3.08;;
8230;SDS011;4156;50.908;6.974;2023-09-08T11:34:47;5.72;;;3.50;;
8230;SDS011;4156;50.908;6.974;2023-09-08T11:37:14;4.43;;;3.35;;
8230;SDS011;4156;50.908;6.974;2023-09-08T11:39:42;5.25;;;3.13;;
8230;SDS011;4156;50.908;6.974;2023-09-08T11:42:10;3.95;;;3.20;;
8230;SDS011;4156;50.908;6.974;2023-09-08T11:44:37;4.85;;;3.35;;
8230;SDS011;4156;50.908;6.974;2023-09-08T11:47:03;3.83;;;3.35;;
8230;SDS011;4156;50.908;6.974;2023-09-08T11:49:34;3.58;;;3.00;;
8230;SDS011;4156;50.908;6.974;2023-09-08T11:52:01;3.95;;;3.17;;
8230;SDS011;4156;50.908;6.974;2023-09-08T11:54:27;5.25;;;3.40;;
8230;SDS011;4156;50.908;6.974;2023-09-08T11:56:53;3.90;;;3.13;;
8230;SDS011;4156;50.908;6.974;2023-09-08T11:59:20;4.43;;;3.38;;
8230;SDS011;4156;50.908;6.974;2023-09-08T12:01:45;4.03;;;3.22;;
8230;SDS011;4156;50.908;6.974;2023-09-08T12:04:18;3.50;;;3.20;;
8230;SDS011;4156;50.908;6.974;2023-09-08T12:06:45;4.00;;;3.22;;
8230;SDS011;4156;50.908;6.974;2023-09-08T12:09:12;4.43;;;3.53;;
8230;SDS011;4156;50.908;6.974;2023-09-08T12:11:38;5.88;;;3.03;;
8230;SDS011;4156;50.908;6.974;2023-09-08T12:14:07;3.50;;;3.20;;
8230;SDS011;4156;50.908;6.974;2023-09-08T12:16:35;4.72;;;3.75;;
8230;SDS011;4156;50.908;6.974;2023-09-08T12:19:00;4.15;;;3.15;;
8230;SDS011;4156;50.908;6.974;2023-09-08T12:21:26;3.58;;;2.97;;
8230;SDS011;4156;50.908;6.974;2023-09-08T12:23:52;4.25;;;3.45;;
8230;SDS011;4156;50.908;6.974;2023-09-08T12:26:18;5.93;;;3.30;;
8230;SDS011;4156;50.908;6.974;2023-09-08T12:28:44;3.85;;;3.30;;
8230;SDS011;4156;50.908;6.974;2023-09-08T12:31:12;3.80;;;3.35;;
8230;SDS011;4156;50.908;6.974;2023-09-08T12:33:38;3.95;;;3.50;;
8230;SDS011;4156;50.908;6.974;2023-09-08T12:36:13;4.05;;;3.38;;
8230;SDS011;4156;50.908;6.974;2023-09-08T12:38:40;3.80;;;3.40;;
8230;SDS011;4156;50.908;6.974;2023-09-08T12:41:11;3.72;;;3.15;;
8230;SDS011;4156;50.908;6.974;2023-09-08T12:43:37;3.50;;;3.20;;
8230;SDS011;4156;50.908;6.974;2023-09-08T12:46:02;4.60;;;3.53;;
8230;SDS011;4156;50.908;6.974;2023-09-08T12:48:28;3.97;;;3.58;;
8230;SDS011;4156;50.908;6.974;2023-09-08T12:50:54;6.32;;;3.70;;
8230;SDS011;4156;50.908;6.974;2023-09-08T12:53:19;4.45;;;3.20;;
8230;SDS011;4156;50.908;6.974;2023-09-08T12:55:46;3.60;;;3.30;;
8230;SDS011;4156;50.908;6.974;2023-09-08T12:58:12;3.50;;;3.20;;
8230;SDS011;4156;50.908;6.974;2023-09-08T13:00:38;3.53;;;3.00;;
8230;SDS011;4156;50.908;6.974;2023-09-08T13:03:03;3.95;;;3.55;;
8230;SDS011;4156;50.908;6.974;2023-09-08T13:05:29;3.50;;;3.13;;
8230;SDS011;4156;50.908;6.974;2023-09-08T13:07:55;3.45;;;2.90;;
8230;SDS011;4156;50.908;6.974;2023-09-08T13:10:21;4.45;;;3.40;;
8230;SDS011;4156;50.908;6.974;2023-09-08T13:12:47;4.30;;;3.70;;
8230;SDS011;4156;50.908;6.974;2023-09-08T13:15:13;3.92;;;3.50;;
8230;SDS011;4156;50.908;6.974;2023-09-08T13:17:39;4.15;;;3.75;;
8230;SDS011;4156;50.908;6.974;2023-09-08T13:20:05;4.10;;;3.28;;
8230;SDS011;4156;50.908;6.974;2023-09-08T13:22:31;4.35;;;3.40;;
8230;SDS011;4156;50.908;6.974;2023-09-08T13:24:57;3.75;;;3.22;;
8230;SDS011;4156;50.908;6.974;2023-09-08T13:27:23;4.28;;;3.50;;
8230;SDS011;4156;50.908;6.974;2023-09-08T13:29:48;3.55;;;3.22;;
8230;SDS011;4156;50.908;6.974;2023-09-08T13:32:14;4.97;;;3.40;;
8230;SDS011;4156;50.908;6.974;2023-09-08T13:34:40;5.32;;;3.35;;
8230;SDS011;4156;50.908;6.974;2023-09-08T13:37:08;3.85;;;3.33;;
8230;SDS011;4156;50.908;6.974;2023-09-08T13:39:34;5.05;;;3.33;;
8230;SDS011;4156;50.908;6.974;2023-09-08T13:42:00;4.90;;;3.10;;
8230;SDS011;4156;50.908;6.974;2023-09-08T13:44:26;6.32;;;3.55;;
8230;SDS011;4156;50.908;6.974;2023-09-08T13:46:52;4.00;;;3.35;;
8230;SDS011;4156;50.908;6.974;2023-09-08T13:49:19;3.58;;;3.08;;
8230;SDS011;4156;50.908;6.974;2023-09-08T13:51:45;3.60;;;3.30;;
8230;SDS011;4156;50.908;6.974;2023-09-08T13:54:11;3.88;;;3.47;;
8230;SDS011;4156;50.908;6.974;2023-09-08T13:56:38;3.95;;;3.10;;
8230;SDS011;4156;50.908;6.974;2023-09-08T13:59:04;4.28;;;3.28;;
8230;SDS011;4156;50.908;6.974;2023-09-08T14:01:30;6.15;;;4.07;;
8230;SDS011;4156;50.908;6.974;2023-09-08T14:03:58;3.50;;;3.00;;
8230;SDS011;4156;50.908;6.974;2023-09-08T14:06:25;3.78;;;3.33;;
8230;SDS011;4156;50.908;6.974;2023-09-08T14:08:51;3.63;;;3.25;;
8230;SDS011;4156;50.908;6.974;2023-09-08T14:11:17;4.78;;;3.67;;
8230;SDS011;4156;50.908;6.974;2023-09-08T14:13:43;4.40;;;3.35;;
8230;SDS011;4156;50.908;6.974;2023-09-08T14:16:09;4.63;;;3.60;;
8230;SDS011;4156;50.908;6.974;2023-09-08T14:18:36;7.03;;;4.38;;
8230;SDS011;4156;50.908;6.974;2023-09-08T14:21:02;16.45;;;7.70;;
8230;SDS011;4156;50.908;6.974;2023-09-08T14:23:29;17.42;;;11.68;;
8230;SDS011;4156;50.908;6.974;2023-09-08T14:25:54;20.00;;;13.68;;
8230;SDS011;4156;50.908;6.974;2023-09-08T14:28:20;15.82;;;9.90;;
8230;SDS011;4156;50.908;6.974;2023-09-08T14:30:46;27.75;;;20.02;;
8230;SDS011;4156;50.908;6.974;2023-09-08T14:33:12;31.73;;;22.85;;
8230;SDS011;4156;50.908;6.974;2023-09-08T14:35:41;13.00;;;10.60;;
8230;SDS011;4156;50.908;6.974;2023-09-08T14:38:08;5.72;;;4.10;;
8230;SDS011;4156;50.908;6.974;2023-09-08T14:40:33;7.90;;;4.75;;
8230;SDS011;4156;50.908;6.974;2023-09-08T14:42:59;4.38;;;3.72;;
8230;SDS011;4156;50.908;6.974;2023-09-08T14:45:24;4.00;;;3.45;;
8230;SDS011;4156;50.908;6.974;2023-09-08T14:47:52;4.43;;;3.50;;
8230;SDS011;4156;50.908;6.974;2023-09-08T14:50:18;4.57;;;3.45;;
8230;SDS011;4156;50.908;6.974;2023-09-08T14:52:44;5.28;;;3.63;;
8230;SDS011;4156;50.908;6.974;2023-09-08T14:55:09;3.75;;;3.35;;
8230;SDS011;4156;50.908;6.974;2023-09-08T14:57:35;4.05;;;3.40;;
8230;SDS011;4156;50.908;6.974;2023-09-08T15:00:02;3.85;;;3.40;;
8230;SDS011;4156;50.908;6.974;2023-09-08T15:02:29;3.72;;;3.33;;
8230;SDS011;4156;50.908;6.974;2023-09-08T15:04:55;3.75;;;3.38;;
8230;SDS011;4156;50.908;6.974;2023-09-08T15:07:21;6.20;;;4.93;;
8230;SDS011;4156;50.908;6.974;2023-09-08T15:09:47;7.90;;;4.75;;
8230;SDS011;4156;50.908;6.974;2023-09-08T15:12:12;4.95;;;3.55;;
8230;SDS011;4156;50.908;6.974;2023-09-08T15:14:38;3.60;;;3.30;;
8230;SDS011;4156;50.908;6.974;2023-09-08T15:17:04;4.28;;;3.78;;
8230;SDS011;4156;50.908;6.974;2023-09-08T15:19:31;4.55;;;3.50;;
8230;SDS011;4156;50.908;6.974;2023-09-08T15:21:57;6.18;;;3.70;;
8230;SDS011;4156;50.908;6.974;2023-09-08T15:24:23;3.38;;;3.08;;
8230;SDS011;4156;50.908;6.974;2023-09-08T15:26:49;6.25;;;3.50;;
8230;SDS011;4156;50.908;6.974;2023-09-08T15:29:15;3.88;;;3.42;;